createdAt,value
2023-05-18T00:00:47.807Z,16.17
2023-05-18T00:03:16.026Z,16.17
2023-05-18T00:05:43.809Z,16.18
2023-05-18T00:08:11.500Z,16.19
2023-05-18T00:10:39.299Z,16.20
2023-05-18T00:13:08.756Z,16.23
2023-05-18T00:15:36.384Z,16.24
2023-05-18T00:18:04.222Z,16.24
2023-05-18T00:20:31.992Z,16.27
2023-05-18T00:23:00.634Z,16.28
2023-05-18T00:25:28.670Z,16.29
2023-05-18T00:27:56.490Z,16.29
2023-05-18T00:30:25.697Z,16.29
2023-05-18T00:32:53.367Z,16.30
2023-05-18T00:35:21.428Z,16.29
2023-05-18T00:37:49.093Z,16.30
2023-05-18T00:40:16.950Z,16.31
2023-05-18T00:42:44.623Z,16.31
2023-05-18T00:45:12.720Z,16.32
2023-05-18T00:47:41.724Z,16.32
2023-05-18T00:50:09.493Z,16.31
2023-05-18T00:52:37.286Z,16.30
2023-05-18T00:55:05.134Z,16.29
2023-05-18T00:57:33.587Z,16.29
2023-05-18T01:00:01.518Z,16.28
2023-05-18T01:02:30.460Z,16.28
2023-05-18T01:05:00.612Z,16.28
2023-05-18T01:07:28.335Z,16.28
2023-05-18T01:09:56.472Z,16.28
2023-05-18T01:12:30.675Z,16.29
2023-05-18T01:15:04.814Z,16.30
2023-05-18T01:17:40.227Z,16.30
2023-05-18T01:20:18.662Z,16.31
2023-05-18T01:23:01.588Z,16.30
2023-05-18T01:25:36.579Z,16.29
2023-05-18T01:28:16.357Z,16.28
2023-05-18T01:30:44.642Z,16.28
2023-05-18T01:33:14.062Z,16.28
2023-05-18T01:35:47.919Z,16.30
2023-05-18T01:38:17.358Z,16.30
2023-05-18T01:40:53.857Z,16.31
2023-05-18T01:43:26.832Z,16.32
2023-05-18T01:45:59.092Z,16.33
2023-05-18T01:48:27.382Z,16.35
2023-05-18T01:50:58.488Z,16.35
2023-05-18T01:53:29.071Z,16.37
2023-05-18T01:55:57.792Z,16.36
2023-05-18T01:58:28.957Z,16.37
2023-05-18T02:00:57.162Z,16.37
2023-05-18T02:03:25.091Z,16.38
2023-05-18T02:05:52.772Z,16.37
2023-05-18T02:08:20.669Z,16.37
2023-05-18T02:10:48.341Z,16.39
2023-05-18T02:13:16.012Z,16.39
2023-05-18T02:15:45.150Z,16.39
2023-05-18T02:18:12.862Z,16.39
2023-05-18T02:20:40.511Z,16.39
2023-05-18T02:23:08.188Z,16.40
2023-05-18T02:25:35.844Z,16.39
2023-05-18T02:28:03.474Z,16.39
2023-05-18T02:30:33.253Z,16.38
2023-05-18T02:33:02.459Z,16.38
2023-05-18T02:35:30.893Z,16.38
2023-05-18T02:37:58.846Z,16.37
2023-05-18T02:40:26.486Z,16.36
2023-05-18T02:42:54.125Z,16.36
2023-05-18T02:45:21.873Z,16.37
2023-05-18T02:47:49.543Z,16.37
2023-05-18T02:50:18.630Z,16.37
2023-05-18T02:52:49.166Z,16.37
2023-05-18T02:55:17.265Z,16.38
2023-05-18T02:57:46.964Z,16.38
2023-05-18T03:00:16.700Z,16.37
2023-05-18T03:02:48.197Z,16.37
2023-05-18T03:05:23.753Z,16.36
2023-05-18T03:07:52.213Z,16.36
2023-05-18T03:10:20.299Z,16.35
2023-05-18T03:12:48.061Z,16.37
2023-05-18T03:15:16.123Z,16.36
2023-05-18T03:17:44.169Z,16.36
2023-05-18T03:20:14.447Z,16.38
2023-05-18T03:22:43.437Z,16.39
2023-05-18T03:25:11.099Z,16.40
2023-05-18T03:27:39.189Z,16.40
2023-05-18T03:30:08.260Z,16.40
2023-05-18T03:32:37.067Z,16.41
2023-05-18T03:35:05.696Z,16.41
2023-05-18T03:37:33.365Z,16.42
2023-05-18T03:40:11.326Z,16.43
2023-05-18T03:42:39.045Z,16.43
2023-05-18T03:45:08.018Z,16.42
2023-05-18T03:47:36.436Z,16.43
2023-05-18T03:50:04.652Z,16.42
2023-05-18T03:52:34.134Z,16.43
2023-05-18T03:55:03.146Z,16.42
2023-05-18T03:57:31.752Z,16.43
2023-05-18T03:59:59.761Z,16.43
2023-05-18T04:02:27.831Z,16.43
2023-05-18T04:04:57.935Z,16.42
2023-05-18T04:07:25.618Z,16.41
2023-05-18T04:09:54.504Z,16.42
2023-05-18T04:12:23.781Z,16.43
2023-05-18T04:14:51.520Z,16.43
2023-05-18T04:17:22.228Z,16.44
2023-05-18T04:19:51.233Z,16.43
2023-05-18T04:22:19.198Z,16.44
2023-05-18T04:24:47.667Z,16.44
2023-05-18T04:27:15.733Z,16.45
2023-05-18T04:29:44.757Z,16.44
2023-05-18T04:32:12.462Z,16.44
2023-05-18T04:34:40.824Z,16.45
2023-05-18T04:37:10.494Z,16.45
2023-05-18T04:39:42.278Z,16.44
2023-05-18T04:42:10.622Z,16.46
2023-05-18T04:44:39.097Z,16.45
2023-05-18T04:47:08.853Z,16.46
2023-05-18T04:49:36.582Z,16.47
2023-05-18T04:52:06.580Z,16.47
2023-05-18T04:54:34.334Z,16.48
2023-05-18T04:57:02.172Z,16.49
2023-05-18T04:59:29.840Z,16.51
2023-05-18T05:01:57.471Z,16.51
2023-05-18T05:04:26.457Z,16.52
2023-05-18T05:06:54.086Z,16.54
2023-05-18T05:09:21.756Z,16.54
2023-05-18T05:11:49.398Z,16.55
2023-05-18T05:14:17.034Z,16.55
2023-05-18T05:16:44.729Z,16.55
2023-05-18T05:19:12.415Z,16.55
2023-05-18T05:21:41.606Z,16.56
2023-05-18T05:24:09.303Z,16.56
2023-05-18T05:26:37.177Z,16.56
2023-05-18T05:29:04.844Z,16.55
2023-05-18T05:31:32.509Z,16.56
2023-05-18T05:34:00.196Z,16.56
2023-05-18T05:36:27.827Z,16.55
2023-05-18T05:38:56.843Z,16.56
2023-05-18T05:41:24.504Z,16.56
2023-05-18T05:43:52.122Z,16.32
2023-05-18T05:46:19.876Z,15.89
2023-05-18T05:48:47.556Z,15.50
2023-05-18T05:51:15.182Z,15.15
2023-05-18T05:53:43.518Z,15.16
2023-05-18T05:56:12.579Z,14.84
2023-05-18T05:58:40.262Z,14.78
2023-05-18T06:01:08.532Z,14.80
2023-05-18T06:03:37.224Z,14.80
2023-05-18T06:06:05.304Z,14.81
2023-05-18T06:08:32.960Z,14.68
2023-05-18T06:11:00.550Z,14.64
2023-05-18T06:13:29.333Z,14.61
2023-05-18T06:15:56.855Z,14.51
2023-05-18T06:18:24.372Z,14.47
2023-05-18T06:20:52.206Z,14.61
2023-05-18T06:23:22.673Z,14.54
2023-05-18T06:25:50.197Z,14.60
2023-05-18T06:28:17.945Z,14.58
2023-05-18T06:30:46.817Z,14.61
2023-05-18T06:33:14.667Z,14.66
2023-05-18T06:35:42.244Z,14.53
2023-05-18T06:38:09.802Z,14.53
2023-05-18T06:40:37.286Z,14.56
2023-05-18T06:43:04.765Z,14.58
2023-05-18T06:45:35.238Z,14.53
2023-05-18T06:48:06.286Z,14.60
2023-05-18T06:50:33.834Z,14.62
2023-05-18T06:53:02.471Z,14.57
2023-05-18T06:55:30.117Z,14.56
2023-05-18T06:57:58.355Z,14.64
2023-05-18T07:00:25.896Z,14.62
2023-05-18T07:02:53.463Z,14.62
2023-05-18T07:05:23.296Z,14.65
2023-05-18T07:07:50.822Z,14.62
2023-05-18T07:10:18.440Z,14.66
2023-05-18T07:12:45.967Z,14.80
2023-05-18T07:15:13.436Z,14.97
2023-05-18T07:17:40.954Z,15.14
2023-05-18T07:20:09.105Z,15.27
2023-05-18T07:22:38.070Z,15.40
2023-05-18T07:25:05.924Z,15.50
2023-05-18T07:27:34.349Z,15.60
2023-05-18T07:30:01.988Z,15.67
2023-05-18T07:32:29.514Z,15.73
2023-05-18T07:34:57.023Z,15.78
2023-05-18T07:37:24.764Z,15.82
2023-05-18T07:39:53.772Z,15.86
2023-05-18T07:42:21.372Z,15.89
2023-05-18T07:44:49.077Z,15.92
2023-05-18T07:47:16.768Z,15.94
2023-05-18T07:49:44.480Z,15.96
2023-05-18T07:52:12.510Z,15.98
2023-05-18T07:54:40.298Z,16.00
2023-05-18T07:57:09.616Z,16.01
2023-05-18T07:59:37.281Z,16.02
2023-05-18T08:02:05.451Z,16.05
2023-05-18T08:04:33.297Z,16.06
2023-05-18T08:07:02.074Z,16.08
2023-05-18T08:09:29.729Z,16.10
2023-05-18T08:11:58.395Z,16.10
2023-05-18T08:14:27.504Z,16.12
2023-05-18T08:16:55.188Z,16.14
2023-05-18T08:19:22.970Z,16.14
2023-05-18T08:21:50.663Z,16.16
2023-05-18T08:24:18.296Z,16.17
2023-05-18T08:26:45.964Z,16.17
2023-05-18T08:29:13.634Z,16.18
2023-05-18T08:31:42.675Z,16.17
2023-05-18T08:34:10.358Z,16.18
2023-05-18T08:36:38.425Z,16.18
2023-05-18T08:39:06.263Z,16.18
2023-05-18T08:41:39.782Z,16.19
2023-05-18T08:44:12.769Z,16.19
2023-05-18T08:46:43.630Z,16.19
2023-05-18T08:49:11.661Z,16.19
2023-05-18T08:51:41.388Z,16.19
2023-05-18T08:54:10.262Z,16.19
2023-05-18T08:56:39.692Z,16.18
2023-05-18T08:59:09.955Z,16.18
2023-05-18T09:01:38.328Z,16.19
2023-05-18T09:04:08.490Z,16.19
2023-05-18T09:06:36.747Z,16.19
2023-05-18T09:09:05.424Z,16.19
2023-05-18T09:11:34.324Z,16.20
2023-05-18T09:14:02.130Z,16.19
2023-05-18T09:16:30.654Z,16.20
2023-05-18T09:18:58.515Z,16.21
2023-05-18T09:21:27.506Z,16.21
2023-05-18T09:23:55.628Z,16.21
2023-05-18T09:26:23.426Z,16.22
2023-05-18T09:28:54.201Z,16.22
2023-05-18T09:31:24.646Z,16.22
2023-05-18T09:33:53.378Z,16.24
2023-05-18T09:36:29.203Z,16.25
2023-05-18T09:38:58.482Z,16.26
2023-05-18T09:41:28.325Z,16.27
2023-05-18T09:43:56.047Z,16.27
2023-05-18T09:46:23.707Z,16.28
2023-05-18T09:48:52.645Z,16.28
2023-05-18T09:51:21.860Z,16.30
2023-05-18T09:53:55.352Z,16.30
2023-05-18T09:56:24.077Z,16.30
2023-05-18T09:58:51.783Z,16.31
2023-05-18T10:01:19.876Z,16.32
2023-05-18T10:03:49.663Z,16.31
2023-05-18T10:06:19.981Z,16.30
2023-05-18T10:08:47.860Z,16.31
2023-05-18T10:11:18.646Z,16.31
2023-05-18T10:13:46.895Z,16.30
2023-05-18T10:16:16.581Z,16.30
2023-05-18T10:18:44.815Z,16.29
2023-05-18T10:21:14.413Z,16.30
2023-05-18T10:23:42.222Z,16.29
2023-05-18T10:26:10.433Z,16.29
2023-05-18T10:28:43.985Z,16.29
2023-05-18T10:31:12.036Z,16.29
2023-05-18T10:33:39.832Z,16.29
2023-05-18T10:36:10.027Z,16.29
2023-05-18T10:38:39.689Z,16.29
2023-05-18T10:41:08.730Z,16.28
2023-05-18T10:43:37.398Z,16.29
2023-05-18T10:46:08.480Z,16.29
2023-05-18T10:48:39.768Z,16.29
2023-05-18T10:51:08.953Z,16.29
2023-05-18T10:53:37.529Z,16.29
2023-05-18T10:56:05.427Z,16.28
2023-05-18T10:58:34.302Z,16.30
2023-05-18T11:01:06.277Z,16.29
2023-05-18T11:03:35.466Z,16.29
2023-05-18T11:06:08.730Z,16.30
2023-05-18T11:08:44.445Z,16.31
2023-05-18T11:11:12.143Z,16.30
2023-05-18T11:13:45.349Z,16.33
2023-05-18T11:16:13.279Z,16.33
2023-05-18T11:18:44.575Z,16.35
2023-05-18T11:21:23.332Z,16.36
2023-05-18T11:24:17.060Z,16.37
2023-05-18T11:26:46.779Z,16.37
2023-05-18T11:29:19.409Z,16.38
2023-05-18T11:31:48.144Z,16.39
2023-05-18T11:34:42.213Z,16.38
2023-05-18T11:37:10.857Z,16.39
2023-05-18T11:39:47.920Z,16.40
2023-05-18T11:42:24.126Z,16.39
2023-05-18T11:44:55.786Z,16.38
2023-05-18T11:47:30.593Z,16.39
2023-05-18T11:50:00.435Z,16.39
2023-05-18T11:52:28.118Z,16.39
2023-05-18T11:54:57.008Z,16.39
2023-05-18T11:57:26.629Z,16.39
2023-05-18T11:59:57.055Z,16.39
2023-05-18T12:02:26.671Z,16.40
2023-05-18T12:04:56.414Z,16.39
2023-05-18T12:07:26.143Z,16.40
2023-05-18T12:09:53.837Z,16.39
2023-05-18T12:12:23.350Z,16.40
2023-05-18T12:14:57.934Z,16.41
2023-05-18T12:17:30.772Z,16.42
2023-05-18T12:19:58.448Z,16.42
2023-05-18T12:22:27.920Z,16.42
2023-05-18T12:24:55.575Z,16.43
2023-05-18T12:27:26.386Z,16.43
2023-05-18T12:29:55.774Z,16.43
2023-05-18T12:32:23.485Z,16.44
2023-05-18T12:34:52.059Z,16.44
2023-05-18T12:37:23.892Z,16.44
2023-05-18T12:39:54.963Z,16.44
2023-05-18T12:42:22.796Z,16.45
2023-05-18T12:44:51.700Z,16.45
2023-05-18T12:47:19.373Z,16.45
2023-05-18T12:49:50.394Z,16.46
2023-05-18T12:52:18.150Z,16.46
2023-05-18T12:54:55.227Z,16.46
2023-05-18T12:57:27.303Z,16.46
2023-05-18T12:59:55.563Z,16.47
2023-05-18T13:02:32.163Z,16.47
2023-05-18T13:05:04.991Z,16.47
2023-05-18T13:07:34.383Z,16.47
2023-05-18T13:10:02.845Z,16.48
2023-05-18T13:12:40.233Z,16.48
2023-05-18T13:15:12.636Z,16.48
2023-05-18T13:17:40.521Z,16.47
2023-05-18T13:20:15.437Z,16.49
2023-05-18T13:22:44.456Z,16.48
2023-05-18T13:25:12.419Z,16.48
2023-05-18T13:27:41.515Z,16.48
2023-05-18T13:30:10.750Z,16.49
2023-05-18T13:32:38.422Z,16.48
2023-05-18T13:35:07.060Z,16.48
2023-05-18T13:37:34.760Z,16.48
2023-05-18T13:40:02.489Z,16.47
2023-05-18T13:42:30.126Z,16.48
2023-05-18T13:44:59.152Z,16.49
2023-05-18T13:47:26.895Z,16.49
2023-05-18T13:49:54.623Z,16.48
2023-05-18T13:52:22.280Z,16.49
2023-05-18T13:54:49.901Z,16.48
2023-05-18T13:57:17.542Z,16.48
2023-05-18T13:59:46.010Z,16.49
2023-05-18T14:02:15.101Z,16.49
2023-05-18T14:04:42.721Z,16.49
2023-05-18T14:07:11.072Z,16.49
2023-05-18T14:09:38.733Z,16.49
2023-05-18T14:12:07.301Z,16.49
2023-05-18T14:14:34.980Z,16.49
2023-05-18T14:17:02.956Z,16.49
2023-05-18T14:19:32.007Z,16.50
2023-05-18T14:21:59.672Z,16.50
2023-05-18T14:24:27.348Z,16.50
2023-05-18T14:26:55.031Z,16.51
2023-05-18T14:29:22.730Z,16.51
2023-05-18T14:31:50.384Z,16.51
2023-05-18T14:34:18.048Z,16.52
2023-05-18T14:36:47.168Z,16.52
2023-05-18T14:39:14.802Z,16.53
2023-05-18T14:41:42.466Z,16.52
2023-05-18T14:44:10.127Z,16.53
2023-05-18T14:46:37.934Z,16.54
2023-05-18T14:49:05.987Z,16.54
2023-05-18T14:51:33.747Z,16.53
2023-05-18T14:54:02.748Z,16.55
2023-05-18T14:56:30.510Z,16.54
2023-05-18T14:58:58.165Z,16.49
2023-05-18T15:01:26.163Z,16.17
2023-05-18T15:03:53.977Z,15.92
2023-05-18T15:06:21.678Z,15.77
2023-05-18T15:08:49.421Z,15.68
2023-05-18T15:11:20.136Z,15.63
2023-05-18T15:13:47.967Z,15.64
2023-05-18T15:16:16.159Z,15.63
2023-05-18T15:18:43.961Z,15.53
2023-05-18T15:21:11.718Z,15.53
2023-05-18T15:23:39.494Z,15.52
2023-05-18T15:26:09.153Z,15.49
2023-05-18T15:28:38.402Z,15.47
2023-05-18T15:31:06.298Z,15.44
2023-05-18T15:33:35.972Z,15.43
2023-05-18T15:36:03.636Z,15.51
2023-05-18T15:38:31.298Z,15.43
2023-05-18T15:40:58.969Z,15.42
2023-05-18T15:43:27.612Z,15.37
2023-05-18T15:45:56.708Z,15.33
2023-05-18T15:48:24.426Z,15.33
2023-05-18T15:50:52.072Z,15.34
2023-05-18T15:53:19.727Z,15.33
2023-05-18T15:55:49.179Z,15.27
2023-05-18T15:58:16.888Z,15.22
2023-05-18T16:00:44.620Z,15.26
2023-05-18T16:03:14.030Z,15.21
2023-05-18T16:05:41.794Z,15.31
2023-05-18T16:08:09.575Z,15.23
2023-05-18T16:10:37.210Z,15.22
2023-05-18T16:13:05.996Z,15.24
2023-05-18T16:15:35.062Z,15.29
2023-05-18T16:18:03.146Z,15.27
2023-05-18T16:20:32.581Z,15.28
2023-05-18T16:23:00.836Z,15.26
2023-05-18T16:25:29.082Z,15.24
2023-05-18T16:27:56.784Z,15.15
2023-05-18T16:30:24.544Z,15.17
2023-05-18T16:32:52.237Z,15.15
2023-05-18T16:35:20.186Z,15.12
2023-05-18T16:37:49.233Z,15.13
2023-05-18T16:40:16.873Z,15.17
2023-05-18T16:42:47.189Z,15.13
2023-05-18T16:45:14.958Z,15.13
2023-05-18T16:47:42.636Z,15.13
2023-05-18T16:50:11.297Z,15.13
2023-05-18T16:52:38.979Z,15.02
2023-05-18T16:55:08.638Z,15.05
2023-05-18T16:57:36.793Z,15.04
2023-05-18T17:00:09.329Z,15.06
2023-05-18T17:02:38.366Z,15.10
2023-05-18T17:05:08.361Z,15.05
2023-05-18T17:07:36.831Z,15.03
2023-05-18T17:10:05.470Z,14.99
2023-05-18T17:12:36.354Z,14.97
2023-05-18T17:15:04.294Z,14.90
2023-05-18T17:17:32.020Z,14.92
2023-05-18T17:19:59.725Z,14.95
2023-05-18T17:22:27.450Z,14.91
2023-05-18T17:24:55.126Z,14.97
2023-05-18T17:27:22.754Z,14.92
2023-05-18T17:29:51.785Z,14.92
2023-05-18T17:32:19.539Z,14.88
2023-05-18T17:34:47.221Z,14.88
2023-05-18T17:37:14.844Z,14.82
2023-05-18T17:39:42.512Z,14.79
2023-05-18T17:42:10.118Z,14.76
2023-05-18T17:44:37.803Z,14.79
2023-05-18T17:47:07.249Z,14.72
2023-05-18T17:49:34.996Z,14.72
2023-05-18T17:52:03.670Z,14.68
2023-05-18T17:54:31.484Z,14.68
2023-05-18T17:56:59.149Z,14.61
2023-05-18T17:59:26.837Z,14.68
2023-05-18T18:01:54.499Z,14.73
2023-05-18T18:04:23.601Z,14.73
2023-05-18T18:06:54.225Z,14.74
2023-05-18T18:09:22.188Z,14.68
2023-05-18T18:11:49.879Z,14.69
2023-05-18T18:14:17.457Z,14.70
2023-05-18T18:16:45.258Z,14.63
2023-05-18T18:19:13.304Z,14.63
2023-05-18T18:21:42.332Z,14.55
2023-05-18T18:24:09.894Z,14.50
2023-05-18T18:26:40.310Z,14.44
2023-05-18T18:29:07.904Z,14.49
2023-05-18T18:31:35.657Z,14.52
2023-05-18T18:34:03.916Z,14.50
2023-05-18T18:36:31.521Z,14.49
2023-05-18T18:39:00.341Z,14.41
2023-05-18T18:41:27.853Z,14.38
2023-05-18T18:43:57.104Z,14.36
2023-05-18T18:46:24.675Z,14.40
2023-05-18T18:48:52.223Z,14.43
2023-05-18T18:51:19.721Z,14.49
2023-05-18T18:53:47.224Z,14.50
2023-05-18T18:56:16.072Z,14.43
2023-05-18T18:58:43.594Z,14.42
2023-05-18T19:01:11.154Z,14.39
2023-05-18T19:03:38.633Z,14.40
2023-05-18T19:06:06.168Z,14.49
2023-05-18T19:08:33.641Z,14.50
2023-05-18T19:11:01.106Z,14.43
2023-05-18T19:13:29.948Z,14.41
2023-05-18T19:15:58.100Z,14.40
2023-05-18T19:18:25.766Z,14.40
2023-05-18T19:20:53.302Z,14.43
2023-05-18T19:23:20.786Z,14.53
2023-05-18T19:25:48.314Z,14.47
2023-05-18T19:28:15.946Z,14.48
2023-05-18T19:30:44.775Z,14.45
2023-05-18T19:33:12.297Z,14.38
2023-05-18T19:35:39.784Z,14.30
2023-05-18T19:38:07.293Z,14.29
2023-05-18T19:40:34.794Z,14.24
2023-05-18T19:43:02.299Z,14.26
2023-05-18T19:45:30.146Z,14.23
2023-05-18T19:47:59.229Z,14.10
2023-05-18T19:50:26.770Z,14.11
2023-05-18T19:52:54.219Z,14.14
2023-05-18T19:55:21.956Z,14.12
2023-05-18T19:57:49.457Z,14.19
2023-05-18T20:00:17.333Z,14.21
2023-05-18T20:02:44.882Z,14.22
2023-05-18T20:05:18.649Z,14.20
2023-05-18T20:07:46.407Z,14.21
2023-05-18T20:10:13.892Z,14.24
2023-05-18T20:12:41.397Z,14.27
2023-05-18T20:15:09.685Z,14.26
2023-05-18T20:17:37.578Z,14.25
2023-05-18T20:20:06.188Z,14.19
2023-05-18T20:22:34.799Z,14.07
2023-05-18T20:25:05.377Z,14.05
2023-05-18T20:27:32.929Z,14.09
2023-05-18T20:30:00.621Z,14.12
2023-05-18T20:32:28.880Z,14.03
2023-05-18T20:34:56.445Z,13.99
2023-05-18T20:37:25.229Z,13.99
2023-05-18T20:39:52.751Z,13.89
2023-05-18T20:42:22.735Z,13.88
2023-05-18T20:44:52.076Z,13.88
2023-05-18T20:47:20.371Z,13.91
2023-05-18T20:49:48.554Z,13.89
2023-05-18T20:52:16.608Z,13.95
2023-05-18T20:54:44.518Z,13.92
2023-05-18T20:57:12.092Z,13.88
2023-05-18T20:59:41.051Z,13.88
2023-05-18T21:02:08.610Z,13.93
2023-05-18T21:04:36.145Z,13.89
2023-05-18T21:07:05.489Z,13.90
2023-05-18T21:09:34.130Z,13.94
2023-05-18T21:12:02.650Z,13.86
2023-05-18T21:14:30.132Z,13.75
2023-05-18T21:16:58.948Z,13.78
2023-05-18T21:19:26.562Z,13.86
2023-05-18T21:21:54.030Z,14.02
2023-05-18T21:24:21.530Z,14.30
2023-05-18T21:26:49.068Z,14.59
2023-05-18T21:29:16.544Z,14.82
2023-05-18T21:31:44.154Z,15.03
2023-05-18T21:34:13.724Z,15.17
2023-05-18T21:36:41.628Z,15.30
2023-05-18T21:39:09.587Z,15.40
2023-05-18T21:41:40.263Z,15.48
2023-05-18T21:44:07.840Z,15.53
2023-05-18T21:46:35.423Z,15.62
2023-05-18T21:49:03.400Z,15.66
2023-05-18T21:51:32.358Z,15.69
2023-05-18T21:53:59.982Z,15.73
2023-05-18T21:56:27.889Z,15.76
2023-05-18T21:58:56.111Z,15.78
2023-05-18T22:01:24.017Z,15.81
2023-05-18T22:03:51.732Z,15.82
2023-05-18T22:06:19.258Z,15.83
2023-05-18T22:08:48.237Z,15.85
2023-05-18T22:11:16.331Z,15.87
2023-05-18T22:13:44.016Z,15.90
2023-05-18T22:16:11.626Z,15.91
2023-05-18T22:18:39.328Z,15.92
2023-05-18T22:21:07.021Z,15.93
2023-05-18T22:23:34.712Z,15.94
2023-05-18T22:26:03.708Z,15.95
2023-05-18T22:28:31.399Z,15.97
2023-05-18T22:30:59.050Z,15.97
2023-05-18T22:33:26.793Z,15.97
2023-05-18T22:35:54.466Z,15.98
2023-05-18T22:38:22.104Z,16.00
2023-05-18T22:40:53.851Z,15.99
2023-05-18T22:43:22.995Z,16.00
2023-05-18T22:45:50.716Z,16.01
2023-05-18T22:48:18.510Z,16.01
2023-05-18T22:50:46.511Z,16.00
2023-05-18T22:53:14.170Z,16.01
2023-05-18T22:55:41.814Z,16.02
2023-05-18T22:58:09.484Z,16.03
2023-05-18T23:00:38.490Z,16.03
2023-05-18T23:03:06.261Z,16.02
2023-05-18T23:05:34.176Z,16.02
2023-05-18T23:08:02.708Z,16.03
2023-05-18T23:10:30.974Z,16.03
2023-05-18T23:12:59.885Z,16.04
2023-05-18T23:15:27.801Z,16.03
2023-05-18T23:17:56.879Z,16.04
2023-05-18T23:20:25.264Z,16.04
2023-05-18T23:22:53.082Z,16.04
2023-05-18T23:25:21.103Z,16.04
2023-05-18T23:27:48.771Z,16.05
2023-05-18T23:30:16.432Z,16.03
2023-05-18T23:32:45.459Z,16.05
2023-05-18T23:35:16.271Z,16.05
2023-05-18T23:37:44.249Z,16.04
2023-05-18T23:40:13.637Z,16.05
2023-05-18T23:42:41.511Z,16.05
2023-05-18T23:45:09.872Z,16.06
2023-05-18T23:47:37.831Z,16.08
2023-05-18T23:50:06.299Z,16.07
2023-05-18T23:52:35.407Z,16.08
2023-05-18T23:55:04.090Z,16.09
2023-05-18T23:57:33.087Z,16.09
